sensor_id;sensor_type;location;lat;lon;timestamp;pressure;altitude;pressure_sealevel;temperature;humidity
55490;BME280;44029;52.956;4.772;2023-10-09T00:01:25;101990.63;;;23.19;100.00
55490;BME280;44029;52.956;4.772;2023-10-09T00:03:51;101991.16;;;23.21;100.00
55490;BME280;44029;52.956;4.772;2023-10-09T00:06:19;101981.31;;;23.10;100.00
55490;BME280;44029;52.956;4.772;2023-10-09T00:08:56;101987.28;;;23.17;100.00
55490;BME280;44029;52.956;4.772;2023-10-09T00:11:22;101987.00;;;22.86;100.00
55490;BME280;44029;52.956;4.772;2023-10-09T00:13:51;101983.78;;;23.25;100.00
55490;BME280;44029;52.956;4.772;2023-10-09T00:16:23;101993.41;;;22.86;100.00
55490;BME280;44029;52.956;4.772;2023-10-09T00:19:02;101990.91;;;22.85;100.00
55490;BME280;44029;52.956;4.772;2023-10-09T00:21:47;101988.25;;;23.40;100.00
55490;BME280;44029;52.956;4.772;2023-10-09T00:24:14;101988.97;;;23.18;100.00
55490;BME280;44029;52.956;4.772;2023-10-09T00:26:46;101972.78;;;23.15;100.00
55490;BME280;44029;52.956;4.772;2023-10-09T00:29:13;101971.59;;;23.21;100.00
55490;BME280;44029;52.956;4.772;2023-10-09T00:31:53;101972.59;;;23.39;100.00
55490;BME280;44029;52.956;4.772;2023-10-09T00:34:39;101978.88;;;23.03;100.00
55490;BME280;44029;52.956;4.772;2023-10-09T00:37:06;101976.31;;;23.07;100.00
55490;BME280;44029;52.956;4.772;2023-10-09T00:39:35;101966.94;;;22.97;100.00
55490;BME280;44029;52.956;4.772;2023-10-09T00:42:01;101959.75;;;23.10;100.00
55490;BME280;44029;52.956;4.772;2023-10-09T00:44:28;101958.25;;;22.99;100.00
55490;BME280;44029;52.956;4.772;2023-10-09T00:47:06;101963.28;;;23.16;100.00
55490;BME280;44029;52.956;4.772;2023-10-09T00:49:49;101973.56;;;22.69;100.00
55490;BME280;44029;52.956;4.772;2023-10-09T00:52:15;101972.59;;;22.78;100.00
55490;BME280;44029;52.956;4.772;2023-10-09T00:54:49;101981.66;;;22.70;100.00
55490;BME280;44029;52.956;4.772;2023-10-09T00:57:18;101979.22;;;22.83;100.00
55490;BME280;44029;52.956;4.772;2023-10-09T00:59:48;101962.56;;;23.10;100.00
55490;BME280;44029;52.956;4.772;2023-10-09T01:02:24;101968.16;;;23.10;100.00
55490;BME280;44029;52.956;4.772;2023-10-09T01:05:00;101964.63;;;23.05;100.00
55490;BME280;44029;52.956;4.772;2023-10-09T01:07:48;101957.28;;;23.23;100.00
55490;BME280;44029;52.956;4.772;2023-10-09T01:10:14;101953.94;;;23.07;100.00
55490;BME280;44029;52.956;4.772;2023-10-09T01:12:42;101950.97;;;22.84;100.00
55490;BME280;44029;52.956;4.772;2023-10-09T01:15:10;101941.19;;;23.01;100.00
55490;BME280;44029;52.956;4.772;2023-10-09T01:17:44;101931.06;;;22.72;100.00
55490;BME280;44029;52.956;4.772;2023-10-09T01:20:11;101929.31;;;23.09;100.00
55490;BME280;44029;52.956;4.772;2023-10-09T01:22:42;101928.63;;;22.84;100.00
55490;BME280;44029;52.956;4.772;2023-10-09T01:25:09;101926.59;;;22.57;100.00
55490;BME280;44029;52.956;4.772;2023-10-09T01:27:35;101924.25;;;22.78;100.00
55490;BME280;44029;52.956;4.772;2023-10-09T01:30:06;101917.38;;;23.03;100.00
55490;BME280;44029;52.956;4.772;2023-10-09T01:32:31;101924.81;;;22.94;100.00
55490;BME280;44029;52.956;4.772;2023-10-09T01:34:57;101918.44;;;23.07;100.00
55490;BME280;44029;52.956;4.772;2023-10-09T01:37:23;101918.50;;;22.88;100.00
55490;BME280;44029;52.956;4.772;2023-10-09T01:39:56;101917.09;;;23.19;100.00
55490;BME280;44029;52.956;4.772;2023-10-09T01:42:24;101914.97;;;22.96;100.00
55490;BME280;44029;52.956;4.772;2023-10-09T01:44:56;101911.28;;;23.15;100.00
55490;BME280;44029;52.956;4.772;2023-10-09T01:47:35;101919.47;;;23.11;100.00
55490;BME280;44029;52.956;4.772;2023-10-09T01:50:06;101922.72;;;23.32;100.00
55490;BME280;44029;52.956;4.772;2023-10-09T01:52:39;101913.00;;;22.83;100.00
55490;BME280;44029;52.956;4.772;2023-10-09T01:55:04;101905.13;;;22.85;100.00
55490;BME280;44029;52.956;4.772;2023-10-09T01:57:50;101909.34;;;23.15;100.00
55490;BME280;44029;52.956;4.772;2023-10-09T02:00:16;101910.38;;;23.20;100.00
55490;BME280;44029;52.956;4.772;2023-10-09T02:02:48;101905.09;;;23.18;100.00
55490;BME280;44029;52.956;4.772;2023-10-09T02:05:15;101913.16;;;23.33;100.00
55490;BME280;44029;52.956;4.772;2023-10-09T02:07:41;101904.31;;;22.98;100.00
55490;BME280;44029;52.956;4.772;2023-10-09T02:10:13;101911.41;;;23.10;100.00
55490;BME280;44029;52.956;4.772;2023-10-09T02:12:58;101902.19;;;23.23;100.00
55490;BME280;44029;52.956;4.772;2023-10-09T02:15:26;101903.63;;;23.48;100.00
55490;BME280;44029;52.956;4.772;2023-10-09T02:18:19;101897.63;;;23.55;100.00
55490;BME280;44029;52.956;4.772;2023-10-09T02:20:50;101899.31;;;23.28;100.00
55490;BME280;44029;52.956;4.772;2023-10-09T02:23:21;101903.00;;;22.49;100.00
55490;BME280;44029;52.956;4.772;2023-10-09T02:25:56;101897.00;;;23.03;100.00
55490;BME280;44029;52.956;4.772;2023-10-09T02:28:22;101881.34;;;23.71;100.00
55490;BME280;44029;52.956;4.772;2023-10-09T02:30:47;101887.75;;;23.02;100.00
55490;BME280;44029;52.956;4.772;2023-10-09T02:33:16;101889.44;;;23.45;100.00
55490;BME280;44029;52.956;4.772;2023-10-09T02:35:55;101885.91;;;22.97;100.00
55490;BME280;44029;52.956;4.772;2023-10-09T02:38:25;101881.06;;;23.17;100.00
55490;BME280;44029;52.956;4.772;2023-10-09T02:40:51;101884.38;;;23.05;100.00
55490;BME280;44029;52.956;4.772;2023-10-09T02:43:42;101872.78;;;23.40;100.00
55490;BME280;44029;52.956;4.772;2023-10-09T02:46:15;101877.72;;;23.01;100.00
55490;BME280;44029;52.956;4.772;2023-10-09T02:48:50;101882.50;;;23.01;100.00
55490;BME280;44029;52.956;4.772;2023-10-09T02:51:22;101885.19;;;23.06;100.00
55490;BME280;44029;52.956;4.772;2023-10-09T02:54:12;101890.06;;;22.53;100.00
55490;BME280;44029;52.956;4.772;2023-10-09T02:56:50;101869.44;;;22.82;100.00
55490;BME280;44029;52.956;4.772;2023-10-09T02:59:30;101854.41;;;22.64;100.00
55490;BME280;44029;52.956;4.772;2023-10-09T03:01:55;101867.03;;;22.75;100.00
55490;BME280;44029;52.956;4.772;2023-10-09T03:04:22;101862.34;;;23.18;100.00
55490;BME280;44029;52.956;4.772;2023-10-09T03:06:48;101866.28;;;23.16;100.00
55490;BME280;44029;52.956;4.772;2023-10-09T03:09:19;101867.97;;;22.85;100.00
55490;BME280;44029;52.956;4.772;2023-10-09T03:11:52;101868.16;;;22.74;100.00
55490;BME280;44029;52.956;4.772;2023-10-09T03:14:21;101866.25;;;23.03;100.00
55490;BME280;44029;52.956;4.772;2023-10-09T03:16:50;101868.91;;;22.80;100.00
55490;BME280;44029;52.956;4.772;2023-10-09T03:19:16;101865.09;;;22.43;100.00
55490;BME280;44029;52.956;4.772;2023-10-09T03:21:42;101870.19;;;22.88;100.00
55490;BME280;44029;52.956;4.772;2023-10-09T03:24:07;101863.16;;;23.18;100.00
55490;BME280;44029;52.956;4.772;2023-10-09T03:26:34;101859.53;;;23.04;100.00
55490;BME280;44029;52.956;4.772;2023-10-09T03:28:59;101876.88;;;22.87;100.00
55490;BME280;44029;52.956;4.772;2023-10-09T03:31:27;101870.31;;;23.10;100.00
55490;BME280;44029;52.956;4.772;2023-10-09T03:33:55;101859.00;;;23.02;100.00
55490;BME280;44029;52.956;4.772;2023-10-09T03:36:21;101868.63;;;22.95;100.00
55490;BME280;44029;52.956;4.772;2023-10-09T03:38:46;101877.81;;;22.82;100.00
55490;BME280;44029;52.956;4.772;2023-10-09T03:41:11;101869.22;;;22.92;100.00
55490;BME280;44029;52.956;4.772;2023-10-09T03:43:39;101861.78;;;23.02;100.00
55490;BME280;44029;52.956;4.772;2023-10-09T03:46:09;101856.81;;;22.98;100.00
55490;BME280;44029;52.956;4.772;2023-10-09T03:48:51;101858.25;;;22.96;100.00
55490;BME280;44029;52.956;4.772;2023-10-09T03:51:17;101863.84;;;22.82;100.00
55490;BME280;44029;52.956;4.772;2023-10-09T03:53:51;101855.44;;;22.68;100.00
55490;BME280;44029;52.956;4.772;2023-10-09T03:56:19;101859.50;;;22.90;100.00
55490;BME280;44029;52.956;4.772;2023-10-09T03:58:48;101863.69;;;23.20;100.00
55490;BME280;44029;52.956;4.772;2023-10-09T04:01:19;101854.66;;;23.37;100.00
55490;BME280;44029;52.956;4.772;2023-10-09T04:03:55;101859.69;;;22.80;100.00
55490;BME280;44029;52.956;4.772;2023-10-09T04:06:24;101868.03;;;23.40;100.00
55490;BME280;44029;52.956;4.772;2023-10-09T04:08:54;101853.75;;;23.14;100.00
55490;BME280;44029;52.956;4.772;2023-10-09T04:11:20;101849.59;;;23.11;100.00
55490;BME280;44029;52.956;4.772;2023-10-09T04:13:48;101858.69;;;23.17;100.00
55490;BME280;44029;52.956;4.772;2023-10-09T04:16:25;101858.31;;;23.10;100.00
55490;BME280;44029;52.956;4.772;2023-10-09T04:19:00;101864.72;;;23.10;100.00
55490;BME280;44029;52.956;4.772;2023-10-09T04:21:32;101879.00;;;23.09;100.00
55490;BME280;44029;52.956;4.772;2023-10-09T04:24:05;101881.16;;;23.53;100.00
55490;BME280;44029;52.956;4.772;2023-10-09T04:26:47;101895.56;;;23.05;100.00
55490;BME280;44029;52.956;4.772;2023-10-09T04:29:16;101906.78;;;23.19;100.00
55490;BME280;44029;52.956;4.772;2023-10-09T04:32:05;101916.47;;;23.08;100.00
55490;BME280;44029;52.956;4.772;2023-10-09T04:34:43;101923.19;;;23.21;100.00
55490;BME280;44029;52.956;4.772;2023-10-09T04:37:14;101931.84;;;22.91;100.00
55490;BME280;44029;52.956;4.772;2023-10-09T04:39:40;101927.13;;;23.06;100.00
55490;BME280;44029;52.956;4.772;2023-10-09T04:42:13;101934.19;;;23.31;100.00
55490;BME280;44029;52.956;4.772;2023-10-09T04:44:45;101936.06;;;22.89;100.00
55490;BME280;44029;52.956;4.772;2023-10-09T04:47:34;101960.50;;;22.83;100.00
55490;BME280;44029;52.956;4.772;2023-10-09T04:50:08;101968.09;;;22.45;100.00
55490;BME280;44029;52.956;4.772;2023-10-09T04:52:34;101952.91;;;22.70;100.00
55490;BME280;44029;52.956;4.772;2023-10-09T04:55:00;101941.16;;;22.54;100.00
55490;BME280;44029;52.956;4.772;2023-10-09T04:57:44;101930.91;;;22.82;100.00
55490;BME280;44029;52.956;4.772;2023-10-09T05:00:15;101942.53;;;22.56;100.00
55490;BME280;44029;52.956;4.772;2023-10-09T05:02:57;101940.66;;;22.33;100.00
55490;BME280;44029;52.956;4.772;2023-10-09T05:05:27;101938.09;;;22.36;100.00
55490;BME280;44029;52.956;4.772;2023-10-09T05:13:36;101930.63;;;22.65;100.00
55490;BME280;44029;52.956;4.772;2023-10-09T05:16:07;101943.19;;;22.48;100.00
55490;BME280;44029;52.956;4.772;2023-10-09T05:18:42;101928.50;;;22.75;100.00
55490;BME280;44029;52.956;4.772;2023-10-09T05:21:07;101921.72;;;22.49;100.00
55490;BME280;44029;52.956;4.772;2023-10-09T05:23:41;101921.03;;;22.71;100.00
55490;BME280;44029;52.956;4.772;2023-10-09T05:26:14;101925.31;;;22.82;100.00
55490;BME280;44029;52.956;4.772;2023-10-09T05:29:03;101916.66;;;22.32;100.00
55490;BME280;44029;52.956;4.772;2023-10-09T05:31:53;101910.72;;;22.52;100.00
55490;BME280;44029;52.956;4.772;2023-10-09T05:34:37;101898.00;;;22.46;100.00
55490;BME280;44029;52.956;4.772;2023-10-09T05:37:23;101906.16;;;22.43;100.00
55490;BME280;44029;52.956;4.772;2023-10-09T05:39:58;101913.41;;;22.44;100.00
55490;BME280;44029;52.956;4.772;2023-10-09T05:42:27;101924.38;;;22.40;100.00
55490;BME280;44029;52.956;4.772;2023-10-09T05:45:09;101934.75;;;22.53;100.00
55490;BME280;44029;52.956;4.772;2023-10-09T05:47:46;101947.22;;;22.23;100.00
55490;BME280;44029;52.956;4.772;2023-10-09T05:50:50;101953.88;;;22.27;100.00
55490;BME280;44029;52.956;4.772;2023-10-09T05:53:15;101952.81;;;22.42;100.00
55490;BME280;44029;52.956;4.772;2023-10-09T05:56:03;101947.75;;;22.44;100.00
55490;BME280;44029;52.956;4.772;2023-10-09T05:58:47;101942.41;;;22.29;100.00
55490;BME280;44029;52.956;4.772;2023-10-09T06:01:31;101934.72;;;22.39;100.00
55490;BME280;44029;52.956;4.772;2023-10-09T06:04:15;101928.72;;;22.46;100.00
55490;BME280;44029;52.956;4.772;2023-10-09T06:06:42;101934.03;;;22.29;100.00
55490;BME280;44029;52.956;4.772;2023-10-09T06:09:14;101936.13;;;23.03;100.00
55490;BME280;44029;52.956;4.772;2023-10-09T06:11:44;101930.97;;;23.24;100.00
55490;BME280;44029;52.956;4.772;2023-10-09T06:14:20;101927.59;;;22.94;100.00
55490;BME280;44029;52.956;4.772;2023-10-09T06:17:12;101920.09;;;23.22;100.00
55490;BME280;44029;52.956;4.772;2023-10-09T06:19:50;101910.50;;;23.28;100.00
55490;BME280;44029;52.956;4.772;2023-10-09T06:22:24;101916.75;;;22.59;100.00
55490;BME280;44029;52.956;4.772;2023-10-09T06:25:01;101914.06;;;22.54;100.00
55490;BME280;44029;52.956;4.772;2023-10-09T06:27:34;101921.34;;;22.17;100.00
55490;BME280;44029;52.956;4.772;2023-10-09T06:30:00;101916.94;;;22.11;100.00
55490;BME280;44029;52.956;4.772;2023-10-09T06:32:43;101902.09;;;22.68;100.00
55490;BME280;44029;52.956;4.772;2023-10-09T06:35:35;101889.03;;;23.24;100.00
55490;BME280;44029;52.956;4.772;2023-10-09T06:38:01;101887.25;;;22.86;100.00
55490;BME280;44029;52.956;4.772;2023-10-09T06:43:05;101876.50;;;23.49;100.00
55490;BME280;44029;52.956;4.772;2023-10-09T06:45:45;101879.38;;;23.02;100.00
55490;BME280;44029;52.956;4.772;2023-10-09T06:48:14;101872.47;;;23.27;100.00
55490;BME280;44029;52.956;4.772;2023-10-09T06:51:02;101858.94;;;23.07;100.00
55490;BME280;44029;52.956;4.772;2023-10-09T06:53:48;101852.28;;;23.16;100.00
55490;BME280;44029;52.956;4.772;2023-10-09T06:56:20;101842.31;;;22.96;100.00
55490;BME280;44029;52.956;4.772;2023-10-09T06:58:54;101850.00;;;23.32;100.00
55490;BME280;44029;52.956;4.772;2023-10-09T07:01:21;101865.06;;;23.59;100.00
55490;BME280;44029;52.956;4.772;2023-10-09T07:03:58;101852.56;;;23.43;100.00
55490;BME280;44029;52.956;4.772;2023-10-09T07:06:44;101851.75;;;23.42;100.00
55490;BME280;44029;52.956;4.772;2023-10-09T07:09:09;101877.75;;;23.15;100.00
55490;BME280;44029;52.956;4.772;2023-10-09T07:11:35;101911.81;;;23.59;100.00
55490;BME280;44029;52.956;4.772;2023-10-09T07:14:08;101913.78;;;23.16;100.00
55490;BME280;44029;52.956;4.772;2023-10-09T07:17:01;101914.09;;;23.57;100.00
55490;BME280;44029;52.956;4.772;2023-10-09T07:19:27;101921.88;;;23.46;100.00
55490;BME280;44029;52.956;4.772;2023-10-09T07:22:05;101924.09;;;22.88;100.00
55490;BME280;44029;52.956;4.772;2023-10-09T07:24:41;101931.00;;;23.38;100.00
55490;BME280;44029;52.956;4.772;2023-10-09T07:27:10;101942.84;;;23.02;100.00
55490;BME280;44029;52.956;4.772;2023-10-09T07:29:37;101947.88;;;22.53;100.00
55490;BME280;44029;52.956;4.772;2023-10-09T07:32:19;101959.47;;;23.12;100.00
55490;BME280;44029;52.956;4.772;2023-10-09T07:34:48;101965.78;;;23.18;100.00
55490;BME280;44029;52.956;4.772;2023-10-09T07:37:26;101973.25;;;23.50;100.00
55490;BME280;44029;52.956;4.772;2023-10-09T07:40:02;101990.03;;;23.50;100.00
55490;BME280;44029;52.956;4.772;2023-10-09T07:42:32;101984.75;;;23.02;100.00
55490;BME280;44029;52.956;4.772;2023-10-09T07:45:07;101984.44;;;23.50;100.00
55490;BME280;44029;52.956;4.772;2023-10-09T07:47:48;101990.56;;;23.93;100.00
55490;BME280;44029;52.956;4.772;2023-10-09T07:50:26;101988.81;;;23.56;100.00
55490;BME280;44029;52.956;4.772;2023-10-09T07:53:04;102002.66;;;23.47;100.00
55490;BME280;44029;52.956;4.772;2023-10-09T07:55:52;102005.00;;;23.26;100.00
55490;BME280;44029;52.956;4.772;2023-10-09T07:58:22;102000.47;;;23.30;100.00
55490;BME280;44029;52.956;4.772;2023-10-09T08:00:55;102014.63;;;23.20;100.00
55490;BME280;44029;52.956;4.772;2023-10-09T08:03:24;102002.81;;;23.09;100.00
55490;BME280;44029;52.956;4.772;2023-10-09T08:05:50;102009.69;;;23.45;100.00
55490;BME280;44029;52.956;4.772;2023-10-09T08:08:18;102013.31;;;23.31;100.00
55490;BME280;44029;52.956;4.772;2023-10-09T08:11:06;102019.81;;;23.13;100.00
55490;BME280;44029;52.956;4.772;2023-10-09T08:13:50;102033.91;;;22.70;100.00
55490;BME280;44029;52.956;4.772;2023-10-09T08:16:22;102035.41;;;23.47;100.00
55490;BME280;44029;52.956;4.772;2023-10-09T08:18:50;102032.94;;;23.12;100.00
55490;BME280;44029;52.956;4.772;2023-10-09T08:21:22;102048.38;;;23.10;100.00
55490;BME280;44029;52.956;4.772;2023-10-09T08:24:07;102040.53;;;23.12;100.00
55490;BME280;44029;52.956;4.772;2023-10-09T08:26:53;102034.28;;;23.15;100.00
55490;BME280;44029;52.956;4.772;2023-10-09T08:29:38;102031.72;;;22.67;100.00
55490;BME280;44029;52.956;4.772;2023-10-09T08:32:11;102031.13;;;22.70;100.00
55490;BME280;44029;52.956;4.772;2023-10-09T08:34:43;102029.16;;;23.03;100.00
55490;BME280;44029;52.956;4.772;2023-10-09T08:37:14;102024.19;;;23.19;100.00
55490;BME280;44029;52.956;4.772;2023-10-09T08:39:39;102032.66;;;23.14;100.00
55490;BME280;44029;52.956;4.772;2023-10-09T08:42:05;102025.16;;;23.09;100.00
55490;BME280;44029;52.956;4.772;2023-10-09T08:44:33;102030.91;;;23.18;100.00
55490;BME280;44029;52.956;4.772;2023-10-09T08:47:00;102041.56;;;23.30;100.00
55490;BME280;44029;52.956;4.772;2023-10-09T08:49:26;102033.13;;;23.49;100.00
55490;BME280;44029;52.956;4.772;2023-10-09T08:51:51;102033.84;;;23.68;100.00
55490;BME280;44029;52.956;4.772;2023-10-09T08:54:18;102048.75;;;23.50;100.00
55490;BME280;44029;52.956;4.772;2023-10-09T08:56:45;102046.00;;;23.64;100.00
55490;BME280;44029;52.956;4.772;2023-10-09T08:59:18;102038.00;;;23.57;100.00
55490;BME280;44029;52.956;4.772;2023-10-09T09:01:47;102042.25;;;23.08;100.00
55490;BME280;44029;52.956;4.772;2023-10-09T09:04:39;102044.63;;;23.47;100.00
55490;BME280;44029;52.956;4.772;2023-10-09T09:07:05;102050.94;;;23.67;100.00
55490;BME280;44029;52.956;4.772;2023-10-09T09:09:32;102052.91;;;23.06;100.00
55490;BME280;44029;52.956;4.772;2023-10-09T09:11:59;102037.88;;;23.48;100.00
55490;BME280;44029;52.956;4.772;2023-10-09T09:14:36;102045.34;;;23.53;100.00
55490;BME280;44029;52.956;4.772;2023-10-09T09:17:03;102047.59;;;23.23;100.00
55490;BME280;44029;52.956;4.772;2023-10-09T09:19:31;102042.97;;;23.60;100.00
55490;BME280;44029;52.956;4.772;2023-10-09T09:21:58;102046.59;;;22.81;100.00
55490;BME280;44029;52.956;4.772;2023-10-09T09:24:37;102045.53;;;23.29;100.00
55490;BME280;44029;52.956;4.772;2023-10-09T09:27:04;102063.22;;;22.53;100.00
55490;BME280;44029;52.956;4.772;2023-10-09T09:29:39;102073.00;;;23.08;100.00
55490;BME280;44029;52.956;4.772;2023-10-09T09:32:07;102060.53;;;23.19;100.00
55490;BME280;44029;52.956;4.772;2023-10-09T09:37:25;102060.47;;;23.38;100.00
55490;BME280;44029;52.956;4.772;2023-10-09T09:39:55;102053.47;;;23.96;100.00
55490;BME280;44029;52.956;4.772;2023-10-09T09:42:22;102048.47;;;23.65;100.00
55490;BME280;44029;52.956;4.772;2023-10-09T09:44:51;102075.31;;;23.52;100.00
55490;BME280;44029;52.956;4.772;2023-10-09T09:47:17;102070.06;;;22.99;100.00
55490;BME280;44029;52.956;4.772;2023-10-09T09:49:51;102064.84;;;23.72;100.00
55490;BME280;44029;52.956;4.772;2023-10-09T09:52:22;102065.06;;;23.62;100.00
55490;BME280;44029;52.956;4.772;2023-10-09T09:54:49;102056.22;;;23.68;100.00
55490;BME280;44029;52.956;4.772;2023-10-09T09:57:16;102068.88;;;23.66;100.00
55490;BME280;44029;52.956;4.772;2023-10-09T09:59:51;102064.59;;;23.08;100.00
55490;BME280;44029;52.956;4.772;2023-10-09T10:02:24;102062.38;;;23.98;100.00
55490;BME280;44029;52.956;4.772;2023-10-09T10:04:55;102072.91;;;23.60;100.00
55490;BME280;44029;52.956;4.772;2023-10-09T10:07:23;102067.34;;;23.73;100.00
55490;BME280;44029;52.956;4.772;2023-10-09T10:09:50;102069.53;;;23.77;100.00
55490;BME280;44029;52.956;4.772;2023-10-09T10:15:22;102054.47;;;23.72;100.00
55490;BME280;44029;52.956;4.772;2023-10-09T10:20:25;102051.69;;;23.59;100.00
55490;BME280;44029;52.956;4.772;2023-10-09T10:22:51;102060.59;;;23.61;100.00
55490;BME280;44029;52.956;4.772;2023-10-09T10:25:37;102050.06;;;23.99;100.00
55490;BME280;44029;52.956;4.772;2023-10-09T10:28:26;102054.53;;;23.86;100.00
55490;BME280;44029;52.956;4.772;2023-10-09T10:31:08;102060.50;;;23.66;100.00
55490;BME280;44029;52.956;4.772;2023-10-09T10:36:21;102073.84;;;23.55;100.00
55490;BME280;44029;52.956;4.772;2023-10-09T10:41:56;102079.50;;;23.83;100.00
55490;BME280;44029;52.956;4.772;2023-10-09T10:44:32;102090.59;;;23.88;100.00
55490;BME280;44029;52.956;4.772;2023-10-09T10:47:11;102092.25;;;23.28;100.00
55490;BME280;44029;52.956;4.772;2023-10-09T10:49:54;102097.78;;;23.61;100.00
55490;BME280;44029;52.956;4.772;2023-10-09T10:52:36;102095.78;;;23.48;100.00
55490;BME280;44029;52.956;4.772;2023-10-09T10:55:16;102083.41;;;23.02;100.00
55490;BME280;44029;52.956;4.772;2023-10-09T10:58:17;102084.56;;;23.95;100.00
55490;BME280;44029;52.956;4.772;2023-10-09T11:00:56;102101.91;;;23.50;100.00
55490;BME280;44029;52.956;4.772;2023-10-09T11:03:21;102102.47;;;23.33;100.00
55490;BME280;44029;52.956;4.772;2023-10-09T11:06:01;102104.69;;;23.17;100.00
55490;BME280;44029;52.956;4.772;2023-10-09T11:08:49;102111.25;;;23.59;100.00
55490;BME280;44029;52.956;4.772;2023-10-09T11:11:22;102108.47;;;23.26;100.00
55490;BME280;44029;52.956;4.772;2023-10-09T11:13:48;102124.16;;;23.08;100.00
55490;BME280;44029;52.956;4.772;2023-10-09T11:16:24;102114.78;;;23.65;100.00
55490;BME280;44029;52.956;4.772;2023-10-09T11:19:20;102114.75;;;23.51;100.00
55490;BME280;44029;52.956;4.772;2023-10-09T11:21:53;102102.66;;;23.23;100.00
55490;BME280;44029;52.956;4.772;2023-10-09T11:24:27;102086.81;;;23.79;100.00
55490;BME280;44029;52.956;4.772;2023-10-09T11:26:58;102068.06;;;23.65;100.00
55490;BME280;44029;52.956;4.772;2023-10-09T11:29:31;102100.47;;;23.52;100.00
55490;BME280;44029;52.956;4.772;2023-10-09T11:32:13;102097.84;;;23.89;100.00
55490;BME280;44029;52.956;4.772;2023-10-09T11:35:11;102097.09;;;24.11;100.00
55490;BME280;44029;52.956;4.772;2023-10-09T11:37:37;102081.63;;;24.27;100.00
55490;BME280;44029;52.956;4.772;2023-10-09T11:40:27;102075.19;;;25.22;100.00
55490;BME280;44029;52.956;4.772;2023-10-09T11:42:59;102071.41;;;24.73;100.00
55490;BME280;44029;52.956;4.772;2023-10-09T11:45:26;102058.09;;;24.79;100.00
55490;BME280;44029;52.956;4.772;2023-10-09T11:47:56;102058.91;;;25.24;100.00
55490;BME280;44029;52.956;4.772;2023-10-09T11:50:51;102050.53;;;25.64;100.00
55490;BME280;44029;52.956;4.772;2023-10-09T11:53:42;102059.72;;;25.88;100.00
55490;BME280;44029;52.956;4.772;2023-10-09T11:56:23;102061.75;;;25.64;100.00
55490;BME280;44029;52.956;4.772;2023-10-09T11:58:52;102064.22;;;25.97;100.00
55490;BME280;44029;52.956;4.772;2023-10-09T12:01:18;102071.13;;;25.91;100.00
55490;BME280;44029;52.956;4.772;2023-10-09T12:03:48;102065.13;;;25.75;100.00
55490;BME280;44029;52.956;4.772;2023-10-09T12:06:19;102064.44;;;25.70;100.00
55490;BME280;44029;52.956;4.772;2023-10-09T12:08:47;102064.81;;;25.85;100.00
55490;BME280;44029;52.956;4.772;2023-10-09T12:11:13;102060.97;;;26.13;100.00
55490;BME280;44029;52.956;4.772;2023-10-09T12:13:40;102056.53;;;26.29;100.00
55490;BME280;44029;52.956;4.772;2023-10-09T12:16:08;102059.34;;;26.29;100.00
55490;BME280;44029;52.956;4.772;2023-10-09T12:18:35;102035.38;;;26.23;100.00
55490;BME280;44029;52.956;4.772;2023-10-09T12:21:01;102035.72;;;26.56;100.00
55490;BME280;44029;52.956;4.772;2023-10-09T12:23:29;102055.63;;;25.94;100.00
55490;BME280;44029;52.956;4.772;2023-10-09T12:26:01;102048.91;;;26.30;100.00
55490;BME280;44029;52.956;4.772;2023-10-09T12:28:27;102053.84;;;26.07;100.00
55490;BME280;44029;52.956;4.772;2023-10-09T12:30:53;102054.63;;;25.98;100.00
55490;BME280;44029;52.956;4.772;2023-10-09T12:33:19;102056.16;;;26.13;100.00
55490;BME280;44029;52.956;4.772;2023-10-09T12:35:45;102057.31;;;26.03;100.00
55490;BME280;44029;52.956;4.772;2023-10-09T12:38:12;102051.53;;;25.69;100.00
55490;BME280;44029;52.956;4.772;2023-10-09T12:40:39;102057.84;;;25.34;100.00
55490;BME280;44029;52.956;4.772;2023-10-09T12:43:07;102058.72;;;24.98;100.00
55490;BME280;44029;52.956;4.772;2023-10-09T12:45:43;102052.03;;;25.08;100.00
55490;BME280;44029;52.956;4.772;2023-10-09T12:48:10;102051.72;;;25.32;100.00
55490;BME280;44029;52.956;4.772;2023-10-09T12:50:36;102054.84;;;25.08;100.00
55490;BME280;44029;52.956;4.772;2023-10-09T12:53:07;102061.16;;;25.14;100.00
55490;BME280;44029;52.956;4.772;2023-10-09T12:55:40;102054.91;;;25.39;100.00
55490;BME280;44029;52.956;4.772;2023-10-09T12:58:09;102053.72;;;25.40;100.00
55490;BME280;44029;52.956;4.772;2023-10-09T13:00:39;102049.53;;;25.06;100.00
55490;BME280;44029;52.956;4.772;2023-10-09T13:03:10;102048.22;;;25.26;100.00
55490;BME280;44029;52.956;4.772;2023-10-09T13:08:19;102059.16;;;25.37;100.00
55490;BME280;44029;52.956;4.772;2023-10-09T13:10:50;102066.78;;;25.22;100.00
55490;BME280;44029;52.956;4.772;2023-10-09T13:13:25;102062.59;;;25.34;100.00
55490;BME280;44029;52.956;4.772;2023-10-09T13:16:05;102060.25;;;25.58;100.00
55490;BME280;44029;52.956;4.772;2023-10-09T13:18:32;102057.38;;;25.18;100.00
55490;BME280;44029;52.956;4.772;2023-10-09T13:20:57;102048.81;;;25.46;100.00
55490;BME280;44029;52.956;4.772;2023-10-09T13:23:23;102047.38;;;25.26;100.00
55490;BME280;44029;52.956;4.772;2023-10-09T13:25:59;102052.91;;;25.40;100.00
55490;BME280;44029;52.956;4.772;2023-10-09T13:28:31;102052.34;;;25.60;100.00
55490;BME280;44029;52.956;4.772;2023-10-09T13:30:57;102054.47;;;25.55;100.00
55490;BME280;44029;52.956;4.772;2023-10-09T13:33:22;102057.19;;;25.77;100.00
55490;BME280;44029;52.956;4.772;2023-10-09T13:35:47;102050.28;;;25.43;100.00